sensor_id;sensor_type;location;lat;lon;timestamp;P1;durP1;ratioP1;P2;durP2;ratioP2
37383;SDS011;23258;49.718;11.082;2023-05-07T00:00:49;2.08;;;1.98;;
37383;SDS011;23258;49.718;11.082;2023-05-07T00:03:19;2.22;;;2.03;;
37383;SDS011;23258;49.718;11.082;2023-05-07T00:05:52;1.52;;;1.52;;
37383;SDS011;23258;49.718;11.082;2023-05-07T00:08:22;2.50;;;2.17;;
37383;SDS011;23258;49.718;11.082;2023-05-07T00:10:52;1.92;;;1.83;;
37383;SDS011;23258;49.718;11.082;2023-05-07T00:13:21;2.33;;;2.22;;
37383;SDS011;23258;49.718;11.082;2023-05-07T00:15:51;1.88;;;1.77;;
37383;SDS011;23258;49.718;11.082;2023-05-07T00:18:21;2.30;;;2.20;;
37383;SDS011;23258;49.718;11.082;2023-05-07T00:20:53;1.77;;;1.67;;
37383;SDS011;23258;49.718;11.082;2023-05-07T00:23:23;2.28;;;2.17;;
37383;SDS011;23258;49.718;11.082;2023-05-07T00:25:52;4.03;;;2.22;;
37383;SDS011;23258;49.718;11.082;2023-05-07T00:28:22;2.20;;;2.10;;
37383;SDS011;23258;49.718;11.082;2023-05-07T00:30:52;2.72;;;2.47;;
37383;SDS011;23258;49.718;11.082;2023-05-07T00:33:22;2.35;;;2.15;;
37383;SDS011;23258;49.718;11.082;2023-05-07T00:35:56;2.47;;;2.38;;
37383;SDS011;23258;49.718;11.082;2023-05-07T00:38:28;2.33;;;2.05;;
37383;SDS011;23258;49.718;11.082;2023-05-07T00:40:57;5.60;;;2.33;;
37383;SDS011;23258;49.718;11.082;2023-05-07T00:43:28;2.45;;;2.25;;
37383;SDS011;23258;49.718;11.082;2023-05-07T00:45:58;2.20;;;2.10;;
37383;SDS011;23258;49.718;11.082;2023-05-07T00:48:28;2.90;;;2.70;;
37383;SDS011;23258;49.718;11.082;2023-05-07T00:51:00;1.85;;;1.75;;
37383;SDS011;23258;49.718;11.082;2023-05-07T00:53:30;2.65;;;2.45;;
37383;SDS011;23258;49.718;11.082;2023-05-07T00:55:59;2.80;;;2.50;;
37383;SDS011;23258;49.718;11.082;2023-05-07T00:58:29;2.97;;;2.63;;
37383;SDS011;23258;49.718;11.082;2023-05-07T01:00:59;3.78;;;2.30;;
37383;SDS011;23258;49.718;11.082;2023-05-07T01:03:29;2.67;;;2.47;;
37383;SDS011;23258;49.718;11.082;2023-05-07T01:06:02;3.00;;;2.58;;
37383;SDS011;23258;49.718;11.082;2023-05-07T01:08:33;2.22;;;2.08;;
37383;SDS011;23258;49.718;11.082;2023-05-07T01:11:06;4.63;;;2.78;;
37383;SDS011;23258;49.718;11.082;2023-05-07T01:13:36;2.83;;;2.65;;
37383;SDS011;23258;49.718;11.082;2023-05-07T01:16:06;2.90;;;2.40;;
37383;SDS011;23258;49.718;11.082;2023-05-07T01:18:36;2.90;;;2.75;;
37383;SDS011;23258;49.718;11.082;2023-05-07T01:21:08;2.40;;;2.25;;
37383;SDS011;23258;49.718;11.082;2023-05-07T01:23:42;2.72;;;2.53;;
37383;SDS011;23258;49.718;11.082;2023-05-07T01:26:13;2.95;;;2.75;;
37383;SDS011;23258;49.718;11.082;2023-05-07T01:28:44;2.75;;;2.55;;
37383;SDS011;23258;49.718;11.082;2023-05-07T01:31:14;3.10;;;2.80;;
37383;SDS011;23258;49.718;11.082;2023-05-07T01:33:45;2.47;;;2.28;;
37383;SDS011;23258;49.718;11.082;2023-05-07T01:36:16;2.50;;;2.30;;
37383;SDS011;23258;49.718;11.082;2023-05-07T01:38:49;2.83;;;2.63;;
37383;SDS011;23258;49.718;11.082;2023-05-07T01:41:19;2.72;;;2.53;;
37383;SDS011;23258;49.718;11.082;2023-05-07T01:43:48;2.35;;;2.25;;
37383;SDS011;23258;49.718;11.082;2023-05-07T01:46:19;2.90;;;2.70;;
37383;SDS011;23258;49.718;11.082;2023-05-07T01:48:49;2.60;;;2.40;;
37383;SDS011;23258;49.718;11.082;2023-05-07T01:51:20;3.38;;;2.70;;
37383;SDS011;23258;49.718;11.082;2023-05-07T01:53:53;3.28;;;3.08;;
37383;SDS011;23258;49.718;11.082;2023-05-07T01:56:23;3.10;;;2.90;;
37383;SDS011;23258;49.718;11.082;2023-05-07T01:58:53;2.80;;;2.60;;
37383;SDS011;23258;49.718;11.082;2023-05-07T02:01:23;3.33;;;3.00;;
37383;SDS011;23258;49.718;11.082;2023-05-07T02:03:53;2.90;;;2.67;;
37383;SDS011;23258;49.718;11.082;2023-05-07T02:06:25;3.90;;;3.35;;
37383;SDS011;23258;49.718;11.082;2023-05-07T02:09:03;3.15;;;2.95;;
37383;SDS011;23258;49.718;11.082;2023-05-07T02:11:33;3.13;;;2.92;;
37383;SDS011;23258;49.718;11.082;2023-05-07T02:14:02;3.55;;;3.25;;
37383;SDS011;23258;49.718;11.082;2023-05-07T02:16:32;3.53;;;3.25;;
37383;SDS011;23258;49.718;11.082;2023-05-07T02:19:02;3.28;;;3.00;;
37383;SDS011;23258;49.718;11.082;2023-05-07T02:21:31;3.17;;;2.97;;
37383;SDS011;23258;49.718;11.082;2023-05-07T02:24:04;3.40;;;3.10;;
37383;SDS011;23258;49.718;11.082;2023-05-07T02:26:34;4.47;;;3.92;;
37383;SDS011;23258;49.718;11.082;2023-05-07T02:29:03;3.95;;;3.65;;
37383;SDS011;23258;49.718;11.082;2023-05-07T02:31:33;3.88;;;3.58;;
37383;SDS011;23258;49.718;11.082;2023-05-07T02:34:03;3.72;;;3.47;;
37383;SDS011;23258;49.718;11.082;2023-05-07T02:36:32;3.60;;;3.35;;
37383;SDS011;23258;49.718;11.082;2023-05-07T02:39:10;4.07;;;3.67;;
37383;SDS011;23258;49.718;11.082;2023-05-07T02:41:40;4.05;;;3.75;;
37383;SDS011;23258;49.718;11.082;2023-05-07T02:44:09;4.30;;;3.92;;
37383;SDS011;23258;49.718;11.082;2023-05-07T02:46:39;4.35;;;3.95;;
37383;SDS011;23258;49.718;11.082;2023-05-07T02:49:11;3.85;;;3.55;;
37383;SDS011;23258;49.718;11.082;2023-05-07T02:51:41;3.97;;;3.67;;
37383;SDS011;23258;49.718;11.082;2023-05-07T02:54:20;3.95;;;3.60;;
37383;SDS011;23258;49.718;11.082;2023-05-07T02:56:49;4.63;;;4.20;;
37383;SDS011;23258;49.718;11.082;2023-05-07T02:59:19;3.60;;;3.30;;
37383;SDS011;23258;49.718;11.082;2023-05-07T03:01:49;3.72;;;3.45;;
37383;SDS011;23258;49.718;11.082;2023-05-07T03:04:18;4.20;;;3.90;;
37383;SDS011;23258;49.718;11.082;2023-05-07T03:06:48;3.90;;;3.60;;
37383;SDS011;23258;49.718;11.082;2023-05-07T03:09:20;4.15;;;3.85;;
37383;SDS011;23258;49.718;11.082;2023-05-07T03:11:50;4.80;;;4.35;;
37383;SDS011;23258;49.718;11.082;2023-05-07T03:14:19;4.20;;;3.90;;
37383;SDS011;23258;49.718;11.082;2023-05-07T03:16:49;4.35;;;4.03;;
37383;SDS011;23258;49.718;11.082;2023-05-07T03:19:19;4.80;;;4.30;;
37383;SDS011;23258;49.718;11.082;2023-05-07T03:21:49;4.00;;;3.70;;
37383;SDS011;23258;49.718;11.082;2023-05-07T03:24:21;4.68;;;4.28;;
37383;SDS011;23258;49.718;11.082;2023-05-07T03:26:51;4.72;;;4.32;;
37383;SDS011;23258;49.718;11.082;2023-05-07T03:29:21;4.85;;;4.43;;
37383;SDS011;23258;49.718;11.082;2023-05-07T03:31:50;5.13;;;4.63;;
37383;SDS011;23258;49.718;11.082;2023-05-07T03:34:20;4.72;;;4.25;;
37383;SDS011;23258;49.718;11.082;2023-05-07T03:36:50;4.80;;;4.40;;
37383;SDS011;23258;49.718;11.082;2023-05-07T03:39:24;4.38;;;4.07;;
37383;SDS011;23258;49.718;11.082;2023-05-07T03:41:54;4.45;;;4.05;;
37383;SDS011;23258;49.718;11.082;2023-05-07T03:44:24;4.90;;;4.50;;
37383;SDS011;23258;49.718;11.082;2023-05-07T03:46:53;4.82;;;4.35;;
37383;SDS011;23258;49.718;11.082;2023-05-07T03:49:23;5.82;;;4.25;;
37383;SDS011;23258;49.718;11.082;2023-05-07T03:51:53;4.20;;;3.90;;
37383;SDS011;23258;49.718;11.082;2023-05-07T03:54:25;4.80;;;4.40;;
37383;SDS011;23258;49.718;11.082;2023-05-07T03:56:55;6.47;;;4.50;;
37383;SDS011;23258;49.718;11.082;2023-05-07T03:59:25;6.03;;;5.53;;
37383;SDS011;23258;49.718;11.082;2023-05-07T04:01:55;4.68;;;4.28;;
37383;SDS011;23258;49.718;11.082;2023-05-07T04:04:27;5.35;;;4.95;;
37383;SDS011;23258;49.718;11.082;2023-05-07T04:07:00;5.35;;;4.82;;
37383;SDS011;23258;49.718;11.082;2023-05-07T04:09:38;5.78;;;5.13;;
37383;SDS011;23258;49.718;11.082;2023-05-07T04:12:08;5.47;;;4.93;;
37383;SDS011;23258;49.718;11.082;2023-05-07T04:14:38;4.13;;;3.80;;
37383;SDS011;23258;49.718;11.082;2023-05-07T04:17:07;5.28;;;4.78;;
37383;SDS011;23258;49.718;11.082;2023-05-07T04:19:38;4.75;;;4.35;;
37383;SDS011;23258;49.718;11.082;2023-05-07T04:22:13;6.63;;;5.93;;
37383;SDS011;23258;49.718;11.082;2023-05-07T04:24:45;5.18;;;4.72;;
37383;SDS011;23258;49.718;11.082;2023-05-07T04:27:15;4.95;;;4.50;;
37383;SDS011;23258;49.718;11.082;2023-05-07T04:29:45;5.45;;;4.95;;
37383;SDS011;23258;49.718;11.082;2023-05-07T04:32:18;5.43;;;4.93;;
37383;SDS011;23258;49.718;11.082;2023-05-07T04:34:48;5.72;;;5.22;;
37383;SDS011;23258;49.718;11.082;2023-05-07T04:37:18;8.25;;;4.95;;
37383;SDS011;23258;49.718;11.082;2023-05-07T04:39:51;6.18;;;5.57;;
37383;SDS011;23258;49.718;11.082;2023-05-07T04:42:21;6.82;;;5.45;;
37383;SDS011;23258;49.718;11.082;2023-05-07T04:44:52;6.50;;;5.18;;
37383;SDS011;23258;49.718;11.082;2023-05-07T04:47:23;5.20;;;4.75;;
37383;SDS011;23258;49.718;11.082;2023-05-07T04:49:53;5.75;;;5.20;;
37383;SDS011;23258;49.718;11.082;2023-05-07T04:52:22;5.07;;;4.60;;
37383;SDS011;23258;49.718;11.082;2023-05-07T04:54:56;5.68;;;5.13;;
37383;SDS011;23258;49.718;11.082;2023-05-07T04:57:27;5.13;;;4.70;;
37383;SDS011;23258;49.718;11.082;2023-05-07T04:59:57;6.32;;;5.18;;
37383;SDS011;23258;49.718;11.082;2023-05-07T05:02:29;6.20;;;5.70;;
37383;SDS011;23258;49.718;11.082;2023-05-07T05:04:59;5.15;;;4.72;;
37383;SDS011;23258;49.718;11.082;2023-05-07T05:07:28;5.40;;;4.90;;
37383;SDS011;23258;49.718;11.082;2023-05-07T05:10:01;5.35;;;4.85;;
37383;SDS011;23258;49.718;11.082;2023-05-07T05:12:34;5.32;;;4.82;;
37383;SDS011;23258;49.718;11.082;2023-05-07T05:15:05;5.13;;;4.68;;
37383;SDS011;23258;49.718;11.082;2023-05-07T05:17:35;4.43;;;4.03;;
37383;SDS011;23258;49.718;11.082;2023-05-07T05:20:06;8.07;;;5.05;;
37383;SDS011;23258;49.718;11.082;2023-05-07T05:22:39;5.07;;;4.65;;
37383;SDS011;23258;49.718;11.082;2023-05-07T05:25:13;4.82;;;4.43;;
37383;SDS011;23258;49.718;11.082;2023-05-07T05:27:43;5.22;;;4.82;;
37383;SDS011;23258;49.718;11.082;2023-05-07T05:30:13;4.28;;;3.97;;
37383;SDS011;23258;49.718;11.082;2023-05-07T05:32:45;5.40;;;4.53;;
37383;SDS011;23258;49.718;11.082;2023-05-07T05:35:15;4.97;;;4.57;;
37383;SDS011;23258;49.718;11.082;2023-05-07T05:37:45;5.28;;;4.78;;
37383;SDS011;23258;49.718;11.082;2023-05-07T05:40:18;4.50;;;4.10;;
37383;SDS011;23258;49.718;11.082;2023-05-07T05:42:48;5.20;;;4.78;;
37383;SDS011;23258;49.718;11.082;2023-05-07T05:45:18;4.90;;;4.43;;
37383;SDS011;23258;49.718;11.082;2023-05-07T05:47:49;4.80;;;4.30;;
37383;SDS011;23258;49.718;11.082;2023-05-07T05:50:18;5.20;;;4.60;;
37383;SDS011;23258;49.718;11.082;2023-05-07T05:52:48;6.32;;;5.32;;
37383;SDS011;23258;49.718;11.082;2023-05-07T05:55:22;5.38;;;4.90;;
37383;SDS011;23258;49.718;11.082;2023-05-07T05:57:51;5.88;;;5.22;;
37383;SDS011;23258;49.718;11.082;2023-05-07T06:00:21;5.50;;;5.00;;
37383;SDS011;23258;49.718;11.082;2023-05-07T06:03:00;6.07;;;4.65;;
37383;SDS011;23258;49.718;11.082;2023-05-07T06:05:30;5.13;;;4.65;;
37383;SDS011;23258;49.718;11.082;2023-05-07T06:07:59;5.22;;;4.82;;
37383;SDS011;23258;49.718;11.082;2023-05-07T06:10:35;6.60;;;4.93;;
37383;SDS011;23258;49.718;11.082;2023-05-07T06:13:06;5.28;;;4.88;;
37383;SDS011;23258;49.718;11.082;2023-05-07T06:15:36;5.38;;;4.88;;
37383;SDS011;23258;49.718;11.082;2023-05-07T06:18:09;5.63;;;5.07;;
37383;SDS011;23258;49.718;11.082;2023-05-07T06:20:39;5.00;;;4.57;;
37383;SDS011;23258;49.718;11.082;2023-05-07T06:23:17;5.18;;;4.72;;
37383;SDS011;23258;49.718;11.082;2023-05-07T06:25:50;4.93;;;4.55;;
37383;SDS011;23258;49.718;11.082;2023-05-07T06:28:24;5.50;;;5.00;;
37383;SDS011;23258;49.718;11.082;2023-05-07T06:30:54;5.40;;;4.47;;
37383;SDS011;23258;49.718;11.082;2023-05-07T06:33:24;4.68;;;4.18;;
37383;SDS011;23258;49.718;11.082;2023-05-07T06:35:54;6.18;;;5.57;;
37383;SDS011;23258;49.718;11.082;2023-05-07T06:38:23;5.30;;;4.90;;
37383;SDS011;23258;49.718;11.082;2023-05-07T06:40:56;5.45;;;4.88;;
37383;SDS011;23258;49.718;11.082;2023-05-07T06:43:25;7.25;;;4.40;;
37383;SDS011;23258;49.718;11.082;2023-05-07T06:46:13;5.60;;;4.82;;
37383;SDS011;23258;49.718;11.082;2023-05-07T06:48:43;4.80;;;4.40;;
37383;SDS011;23258;49.718;11.082;2023-05-07T06:51:13;4.97;;;4.57;;
37383;SDS011;23258;49.718;11.082;2023-05-07T06:53:42;5.15;;;4.70;;
37383;SDS011;23258;49.718;11.082;2023-05-07T06:56:15;4.70;;;4.28;;
37383;SDS011;23258;49.718;11.082;2023-05-07T06:58:44;5.50;;;4.85;;
37383;SDS011;23258;49.718;11.082;2023-05-07T07:01:17;5.20;;;4.47;;
37383;SDS011;23258;49.718;11.082;2023-05-07T07:03:47;5.38;;;4.88;;
37383;SDS011;23258;49.718;11.082;2023-05-07T07:06:19;4.93;;;4.53;;
37383;SDS011;23258;49.718;11.082;2023-05-07T07:08:49;4.95;;;4.45;;
37383;SDS011;23258;49.718;11.082;2023-05-07T07:11:21;4.85;;;4.45;;
37383;SDS011;23258;49.718;11.082;2023-05-07T07:13:51;4.82;;;4.43;;
37383;SDS011;23258;49.718;11.082;2023-05-07T07:16:21;4.90;;;4.47;;
37383;SDS011;23258;49.718;11.082;2023-05-07T07:18:51;4.53;;;4.03;;
37383;SDS011;23258;49.718;11.082;2023-05-07T07:21:21;4.40;;;4.00;;
37383;SDS011;23258;49.718;11.082;2023-05-07T07:23:51;4.20;;;3.80;;
37383;SDS011;23258;49.718;11.082;2023-05-07T07:26:23;5.25;;;4.70;;
37383;SDS011;23258;49.718;11.082;2023-05-07T07:28:53;4.63;;;4.22;;
37383;SDS011;23258;49.718;11.082;2023-05-07T07:31:23;5.85;;;4.70;;
37383;SDS011;23258;49.718;11.082;2023-05-07T07:33:53;4.82;;;4.40;;
37383;SDS011;23258;49.718;11.082;2023-05-07T07:36:22;4.28;;;3.90;;
37383;SDS011;23258;49.718;11.082;2023-05-07T07:39:12;5.47;;;4.53;;
37383;SDS011;23258;49.718;11.082;2023-05-07T07:41:45;4.82;;;4.43;;
37383;SDS011;23258;49.718;11.082;2023-05-07T07:44:17;4.70;;;4.30;;
37383;SDS011;23258;49.718;11.082;2023-05-07T07:46:51;3.78;;;3.55;;
37383;SDS011;23258;49.718;11.082;2023-05-07T07:49:22;4.03;;;3.70;;
37383;SDS011;23258;49.718;11.082;2023-05-07T07:51:53;5.05;;;4.28;;
37383;SDS011;23258;49.718;11.082;2023-05-07T07:54:26;3.95;;;3.65;;
37383;SDS011;23258;49.718;11.082;2023-05-07T07:57:00;5.03;;;4.60;;
37383;SDS011;23258;49.718;11.082;2023-05-07T07:59:32;4.32;;;3.92;;
37383;SDS011;23258;49.718;11.082;2023-05-07T08:02:01;4.97;;;4.03;;
37383;SDS011;23258;49.718;11.082;2023-05-07T08:04:32;3.85;;;3.55;;
37383;SDS011;23258;49.718;11.082;2023-05-07T08:07:04;4.03;;;3.70;;
37383;SDS011;23258;49.718;11.082;2023-05-07T08:09:36;5.65;;;4.50;;
37383;SDS011;23258;49.718;11.082;2023-05-07T08:12:10;4.07;;;3.67;;
37383;SDS011;23258;49.718;11.082;2023-05-07T08:14:40;4.05;;;3.60;;
37383;SDS011;23258;49.718;11.082;2023-05-07T08:17:10;5.50;;;3.95;;
37383;SDS011;23258;49.718;11.082;2023-05-07T08:19:43;4.15;;;3.85;;
37383;SDS011;23258;49.718;11.082;2023-05-07T08:22:13;5.68;;;4.38;;
37383;SDS011;23258;49.718;11.082;2023-05-07T08:24:45;3.75;;;3.42;;
37383;SDS011;23258;49.718;11.082;2023-05-07T08:27:17;4.38;;;3.97;;
37383;SDS011;23258;49.718;11.082;2023-05-07T08:29:47;3.70;;;3.40;;
37383;SDS011;23258;49.718;11.082;2023-05-07T08:32:19;4.30;;;3.78;;
37383;SDS011;23258;49.718;11.082;2023-05-07T08:34:48;5.88;;;3.75;;
37383;SDS011;23258;49.718;11.082;2023-05-07T08:37:18;4.47;;;3.58;;
37383;SDS011;23258;49.718;11.082;2023-05-07T08:39:48;4.00;;;3.70;;
37383;SDS011;23258;49.718;11.082;2023-05-07T08:42:23;3.83;;;3.53;;
37383;SDS011;23258;49.718;11.082;2023-05-07T08:44:53;3.75;;;3.45;;
37383;SDS011;23258;49.718;11.082;2023-05-07T08:47:27;3.92;;;3.63;;
37383;SDS011;23258;49.718;11.082;2023-05-07T08:49:59;4.63;;;4.22;;
37383;SDS011;23258;49.718;11.082;2023-05-07T08:52:29;3.83;;;3.53;;
37383;SDS011;23258;49.718;11.082;2023-05-07T08:54:59;3.80;;;3.50;;
37383;SDS011;23258;49.718;11.082;2023-05-07T08:57:32;4.75;;;3.47;;
37383;SDS011;23258;49.718;11.082;2023-05-07T09:00:03;3.40;;;3.10;;
37383;SDS011;23258;49.718;11.082;2023-05-07T09:02:36;4.32;;;3.95;;
37383;SDS011;23258;49.718;11.082;2023-05-07T09:05:07;4.55;;;4.15;;
37383;SDS011;23258;49.718;11.082;2023-05-07T09:07:38;3.90;;;3.60;;
37383;SDS011;23258;49.718;11.082;2023-05-07T09:10:09;3.13;;;2.92;;
37383;SDS011;23258;49.718;11.082;2023-05-07T09:12:43;3.83;;;3.53;;
37383;SDS011;23258;49.718;11.082;2023-05-07T09:15:13;4.10;;;3.72;;
37383;SDS011;23258;49.718;11.082;2023-05-07T09:17:43;3.97;;;3.67;;
37383;SDS011;23258;49.718;11.082;2023-05-07T09:20:13;4.18;;;3.63;;
37383;SDS011;23258;49.718;11.082;2023-05-07T09:22:43;3.75;;;3.45;;
37383;SDS011;23258;49.718;11.082;2023-05-07T09:25:15;4.32;;;3.97;;
37383;SDS011;23258;49.718;11.082;2023-05-07T09:27:47;3.67;;;3.38;;
37383;SDS011;23258;49.718;11.082;2023-05-07T09:30:17;4.40;;;3.67;;
37383;SDS011;23258;49.718;11.082;2023-05-07T09:32:46;3.45;;;3.15;;
37383;SDS011;23258;49.718;11.082;2023-05-07T09:35:20;3.33;;;3.03;;
37383;SDS011;23258;49.718;11.082;2023-05-07T09:37:55;4.50;;;4.10;;
37383;SDS011;23258;49.718;11.082;2023-05-07T09:40:31;3.85;;;3.55;;
37383;SDS011;23258;49.718;11.082;2023-05-07T09:43:11;3.28;;;3.05;;
37383;SDS011;23258;49.718;11.082;2023-05-07T09:45:51;3.85;;;3.33;;
37383;SDS011;23258;49.718;11.082;2023-05-07T09:48:24;3.95;;;3.65;;
37383;SDS011;23258;49.718;11.082;2023-05-07T09:50:55;3.15;;;2.95;;
37383;SDS011;23258;49.718;11.082;2023-05-07T09:53:29;3.13;;;2.88;;
37383;SDS011;23258;49.718;11.082;2023-05-07T09:56:01;3.58;;;3.28;;
37383;SDS011;23258;49.718;11.082;2023-05-07T09:58:35;3.53;;;3.22;;
37383;SDS011;23258;49.718;11.082;2023-05-07T10:01:06;3.22;;;2.92;;
37383;SDS011;23258;49.718;11.082;2023-05-07T10:03:39;3.47;;;3.22;;
37383;SDS011;23258;49.718;11.082;2023-05-07T10:06:10;3.58;;;3.28;;
37383;SDS011;23258;49.718;11.082;2023-05-07T10:08:40;3.20;;;2.90;;
37383;SDS011;23258;49.718;11.082;2023-05-07T10:11:09;3.30;;;3.00;;
37383;SDS011;23258;49.718;11.082;2023-05-07T10:13:42;2.78;;;2.58;;
37383;SDS011;23258;49.718;11.082;2023-05-07T10:16:12;2.65;;;2.28;;
37383;SDS011;23258;49.718;11.082;2023-05-07T10:18:46;3.65;;;3.08;;
37383;SDS011;23258;49.718;11.082;2023-05-07T10:21:20;3.03;;;2.83;;
37383;SDS011;23258;49.718;11.082;2023-05-07T10:23:55;2.95;;;2.72;;
37383;SDS011;23258;49.718;11.082;2023-05-07T10:26:29;2.78;;;2.58;;
37383;SDS011;23258;49.718;11.082;2023-05-07T10:29:04;2.97;;;2.78;;
37383;SDS011;23258;49.718;11.082;2023-05-07T10:31:43;2.58;;;2.42;;
37383;SDS011;23258;49.718;11.082;2023-05-07T10:34:18;5.60;;;3.17;;
37383;SDS011;23258;49.718;11.082;2023-05-07T10:36:50;3.10;;;2.33;;
37383;SDS011;23258;49.718;11.082;2023-05-07T10:39:21;2.90;;;2.70;;
37383;SDS011;23258;49.718;11.082;2023-05-07T10:41:51;2.80;;;2.55;;
37383;SDS011;23258;49.718;11.082;2023-05-07T10:44:28;2.67;;;2.47;;
37383;SDS011;23258;49.718;11.082;2023-05-07T10:47:05;2.63;;;2.42;;
37383;SDS011;23258;49.718;11.082;2023-05-07T10:49:51;3.00;;;2.55;;
37383;SDS011;23258;49.718;11.082;2023-05-07T10:52:41;3.30;;;2.90;;
37383;SDS011;23258;49.718;11.082;2023-05-07T10:55:19;2.80;;;2.60;;
37383;SDS011;23258;49.718;11.082;2023-05-07T11:01:17;2.20;;;2.10;;
37383;SDS011;23258;49.718;11.082;2023-05-07T11:04:13;2.70;;;2.50;;
37383;SDS011;23258;49.718;11.082;2023-05-07T11:09:59;2.50;;;2.30;;
37383;SDS011;23258;49.718;11.082;2023-05-07T11:12:54;2.35;;;2.15;;
37383;SDS011;23258;49.718;11.082;2023-05-07T11:18:48;2.45;;;2.25;;
37383;SDS011;23258;49.718;11.082;2023-05-07T11:21:34;1.75;;;1.65;;
37383;SDS011;23258;49.718;11.082;2023-05-07T11:24:13;2.40;;;2.20;;
37383;SDS011;23258;49.718;11.082;2023-05-07T11:26:52;2.50;;;2.35;;
37383;SDS011;23258;49.718;11.082;2023-05-07T11:29:24;2.55;;;2.38;;
37383;SDS011;23258;49.718;11.082;2023-05-07T11:32:03;2.28;;;2.15;;
37383;SDS011;23258;49.718;11.082;2023-05-07T11:34:42;2.20;;;2.00;;
37383;SDS011;23258;49.718;11.082;2023-05-07T11:37:12;2.15;;;2.00;;
37383;SDS011;23258;49.718;11.082;2023-05-07T11:40:03;2.67;;;2.47;;
37383;SDS011;23258;49.718;11.082;2023-05-07T11:42:34;2.30;;;2.10;;
37383;SDS011;23258;49.718;11.082;2023-05-07T11:45:05;2.45;;;2.25;;
37383;SDS011;23258;49.718;11.082;2023-05-07T11:47:35;2.28;;;2.08;;
37383;SDS011;23258;49.718;11.082;2023-05-07T11:50:11;2.10;;;2.00;;
37383;SDS011;23258;49.718;11.082;2023-05-07T11:52:49;2.03;;;1.88;;
37383;SDS011;23258;49.718;11.082;2023-05-07T11:55:19;2.40;;;2.28;;
37383;SDS011;23258;49.718;11.082;2023-05-07T11:57:50;2.30;;;2.08;;
37383;SDS011;23258;49.718;11.082;2023-05-07T12:00:20;2.22;;;2.13;;
37383;SDS011;23258;49.718;11.082;2023-05-07T12:02:50;2.00;;;1.90;;
37383;SDS011;23258;49.718;11.082;2023-05-07T12:05:22;2.35;;;2.15;;
37383;SDS011;23258;49.718;11.082;2023-05-07T12:07:55;2.53;;;2.03;;
37383;SDS011;23258;49.718;11.082;2023-05-07T12:10:25;3.00;;;2.70;;
37383;SDS011;23258;49.718;11.082;2023-05-07T12:12:55;2.75;;;2.55;;
37383;SDS011;23258;49.718;11.082;2023-05-07T12:15:25;2.45;;;2.25;;
37383;SDS011;23258;49.718;11.082;2023-05-07T12:17:54;2.25;;;2.03;;
37383;SDS011;23258;49.718;11.082;2023-05-07T12:20:27;2.35;;;2.25;;
37383;SDS011;23258;49.718;11.082;2023-05-07T12:22:56;2.38;;;2.20;;
37383;SDS011;23258;49.718;11.082;2023-05-07T12:25:26;4.05;;;2.30;;
37383;SDS011;23258;49.718;11.082;2023-05-07T12:27:56;2.65;;;2.45;;
37383;SDS011;23258;49.718;11.082;2023-05-07T12:30:26;2.88;;;2.67;;
37383;SDS011;23258;49.718;11.082;2023-05-07T12:32:56;3.05;;;2.40;;
37383;SDS011;23258;49.718;11.082;2023-05-07T12:35:29;2.90;;;2.67;;
37383;SDS011;23258;49.718;11.082;2023-05-07T12:37:59;2.70;;;2.50;;
37383;SDS011;23258;49.718;11.082;2023-05-07T12:40:37;2.33;;;2.22;;
37383;SDS011;23258;49.718;11.082;2023-05-07T12:43:07;2.10;;;2.00;;
37383;SDS011;23258;49.718;11.082;2023-05-07T12:45:37;2.42;;;2.17;;
37383;SDS011;23258;49.718;11.082;2023-05-07T12:48:09;2.30;;;2.20;;
37383;SDS011;23258;49.718;11.082;2023-05-07T12:50:41;2.33;;;2.13;;
37383;SDS011;23258;49.718;11.082;2023-05-07T12:53:11;2.03;;;1.92;;
37383;SDS011;23258;49.718;11.082;2023-05-07T12:55:42;2.10;;;2.00;;
37383;SDS011;23258;49.718;11.082;2023-05-07T12:58:15;2.08;;;1.90;;
37383;SDS011;23258;49.718;11.082;2023-05-07T13:00:47;2.28;;;2.17;;
37383;SDS011;23258;49.718;11.082;2023-05-07T13:03:24;2.90;;;2.33;;
37383;SDS011;23258;49.718;11.082;2023-05-07T13:05:57;2.50;;;2.40;;
37383;SDS011;23258;49.718;11.082;2023-05-07T13:08:27;2.22;;;2.08;;
37383;SDS011;23258;49.718;11.082;2023-05-07T13:10:58;1.90;;;1.80;;
37383;SDS011;23258;49.718;11.082;2023-05-07T13:13:30;2.33;;;2.13;;
37383;SDS011;23258;49.718;11.082;2023-05-07T13:16:00;2.60;;;2.40;;
37383;SDS011;23258;49.718;11.082;2023-05-07T13:18:30;2.35;;;2.25;;
37383;SDS011;23258;49.718;11.082;2023-05-07T13:21:03;3.15;;;2.85;;
37383;SDS011;23258;49.718;11.082;2023-05-07T13:23:33;2.92;;;2.35;;
37383;SDS011;23258;49.718;11.082;2023-05-07T13:26:05;2.70;;;2.50;;
37383;SDS011;23258;49.718;11.082;2023-05-07T13:28:50;2.58;;;2.38;;
37383;SDS011;23258;49.718;11.082;2023-05-07T13:31:20;2.67;;;2.47;;
37383;SDS011;23258;49.718;11.082;2023-05-07T13:33:50;2.63;;;2.22;;
37383;SDS011;23258;49.718;11.082;2023-05-07T13:36:22;2.17;;;2.08;;
37383;SDS011;23258;49.718;11.082;2023-05-07T13:38:53;2.00;;;1.90;;
37383;SDS011;23258;49.718;11.082;2023-05-07T13:41:22;1.92;;;1.83;;
37383;SDS011;23258;49.718;11.082;2023-05-07T13:43:52;2.03;;;1.92;;
37383;SDS011;23258;49.718;11.082;2023-05-07T13:46:22;2.80;;;2.28;;
37383;SDS011;23258;49.718;11.082;2023-05-07T13:48:52;2.08;;;1.98;;
37383;SDS011;23258;49.718;11.082;2023-05-07T13:51:24;2.30;;;2.20;;
37383;SDS011;23258;49.718;11.082;2023-05-07T13:53:54;2.17;;;2.08;;
37383;SDS011;23258;49.718;11.082;2023-05-07T13:56:25;2.38;;;2.17;;
37383;SDS011;23258;49.718;11.082;2023-05-07T13:58:54;2.60;;;2.40;;
37383;SDS011;23258;49.718;11.082;2023-05-07T14:01:26;2.22;;;2.03;;
37383;SDS011;23258;49.718;11.082;2023-05-07T14:03:56;2.40;;;2.20;;
37383;SDS011;23258;49.718;11.082;2023-05-07T14:06:29;3.17;;;2.88;;
37383;SDS011;23258;49.718;11.082;2023-05-07T14:08:59;2.42;;;2.33;;
37383;SDS011;23258;49.718;11.082;2023-05-07T14:11:28;2.80;;;2.58;;
37383;SDS011;23258;49.718;11.082;2023-05-07T14:14:01;2.17;;;2.08;;
37383;SDS011;23258;49.718;11.082;2023-05-07T14:16:31;3.17;;;2.88;;
37383;SDS011;23258;49.718;11.082;2023-05-07T14:19:00;2.90;;;2.60;;
37383;SDS011;23258;49.718;11.082;2023-05-07T14:21:33;2.38;;;2.28;;
37383;SDS011;23258;49.718;11.082;2023-05-07T14:24:02;2.60;;;2.20;;
37383;SDS011;23258;49.718;11.082;2023-05-07T14:26:32;2.55;;;2.35;;
37383;SDS011;23258;49.718;11.082;2023-05-07T14:29:02;2.00;;;1.90;;
37383;SDS011;23258;49.718;11.082;2023-05-07T14:31:32;1.92;;;1.83;;
37383;SDS011;23258;49.718;11.082;2023-05-07T14:34:02;2.42;;;2.22;;
37383;SDS011;23258;49.718;11.082;2023-05-07T14:36:34;2.17;;;2.08;;
37383;SDS011;23258;49.718;11.082;2023-05-07T14:39:04;2.70;;;2.47;;
37383;SDS011;23258;49.718;11.082;2023-05-07T14:41:34;2.42;;;2.22;;
37383;SDS011;23258;49.718;11.082;2023-05-07T14:44:04;2.72;;;2.42;;
37383;SDS011;23258;49.718;11.082;2023-05-07T14:46:33;1.92;;;1.83;;
37383;SDS011;23258;49.718;11.082;2023-05-07T14:49:03;2.30;;;2.20;;
37383;SDS011;23258;49.718;11.082;2023-05-07T14:51:35;3.58;;;2.30;;
37383;SDS011;23258;49.718;11.082;2023-05-07T14:54:05;2.10;;;2.00;;
37383;SDS011;23258;49.718;11.082;2023-05-07T14:56:35;2.40;;;2.10;;
37383;SDS011;23258;49.718;11.082;2023-05-07T14:59:05;2.20;;;2.00;;
37383;SDS011;23258;49.718;11.082;2023-05-07T15:01:34;2.42;;;2.22;;
37383;SDS011;23258;49.718;11.082;2023-05-07T15:04:04;2.30;;;2.10;;
37383;SDS011;23258;49.718;11.082;2023-05-07T15:06:37;2.30;;;2.20;;
37383;SDS011;23258;49.718;11.082;2023-05-07T15:09:06;2.90;;;2.60;;